createdAt,value
2017-05-20T00:00:52.483Z,10.52
2017-05-20T00:03:21.509Z,11.94
2017-05-20T00:05:50.459Z,11.94
2017-05-20T00:08:19.761Z,11.10
2017-05-20T00:10:48.764Z,10.84
2017-05-20T00:13:17.768Z,10.56
2017-05-20T00:15:47.129Z,12.16
2017-05-20T00:18:16.093Z,13.00
2017-05-20T00:20:45.109Z,13.14
2017-05-20T00:23:14.419Z,12.30
2017-05-20T00:25:43.485Z,13.48
2017-05-20T00:28:12.458Z,13.02
2017-05-20T00:30:41.777Z,14.42
2017-05-20T00:33:10.858Z,13.50
2017-05-20T00:35:39.815Z,15.02
2017-05-20T00:38:09.182Z,14.90
2017-05-20T00:40:38.133Z,15.16
2017-05-20T00:43:07.138Z,15.60
2017-05-20T00:45:36.465Z,16.84
2017-05-20T00:48:05.434Z,16.46
2017-05-20T00:50:34.386Z,17.22
2017-05-20T00:53:03.783Z,16.32
2017-05-20T00:55:32.746Z,18.98
2017-05-20T00:58:01.732Z,16.44
2017-05-20T01:00:31.083Z,19.32
2017-05-20T01:03:00.063Z,15.52
2017-05-20T01:05:29.095Z,17.14
2017-05-20T01:07:58.514Z,16.20
2017-05-20T01:10:27.633Z,17.60
2017-05-20T01:12:56.600Z,16.18
2017-05-20T01:15:26.012Z,14.64
2017-05-20T01:17:55.004Z,17.04
2017-05-20T01:20:23.952Z,15.80
2017-05-20T01:22:53.403Z,16.32
2017-05-20T01:25:22.364Z,15.72
2017-05-20T01:27:51.324Z,15.64
2017-05-20T01:30:20.689Z,14.54
2017-05-20T01:32:49.656Z,16.22
2017-05-20T01:35:18.680Z,16.10
2017-05-20T01:37:48.064Z,15.24
2017-05-20T01:40:17.034Z,15.96
2017-05-20T01:42:45.969Z,14.42
2017-05-20T01:45:15.242Z,14.80
2017-05-20T01:47:44.184Z,16.76
2017-05-20T01:50:13.144Z,15.86
2017-05-20T01:52:42.541Z,17.90
2017-05-20T01:55:11.581Z,16.40
2017-05-20T01:57:40.535Z,17.70
2017-05-20T02:00:09.910Z,16.64
2017-05-20T02:02:38.910Z,17.78
2017-05-20T02:05:07.899Z,20.30
2017-05-20T02:07:37.209Z,18.04
2017-05-20T02:10:06.189Z,19.32
2017-05-20T02:12:35.192Z,20.18
2017-05-20T02:15:04.583Z,21.34
2017-05-20T02:17:33.723Z,21.12
2017-05-20T02:20:02.698Z,19.74
2017-05-20T02:22:31.692Z,19.86
2017-05-20T02:25:00.667Z,19.20
2017-05-20T02:27:30.054Z,18.84
2017-05-20T02:29:59.027Z,21.50
2017-05-20T02:32:28.031Z,19.04
2017-05-20T02:34:57.018Z,19.66
2017-05-20T02:37:25.993Z,18.96
2017-05-20T02:39:55.440Z,19.68
2017-05-20T02:42:24.381Z,19.18
2017-05-20T02:44:53.375Z,22.04
2017-05-20T02:47:22.707Z,23.94
2017-05-20T02:49:51.653Z,22.24
2017-05-20T02:52:20.614Z,22.28
2017-05-20T02:54:50.111Z,22.12
2017-05-20T02:57:19.077Z,20.78
2017-05-20T02:59:48.034Z,23.88
2017-05-20T03:02:17.428Z,22.60
2017-05-20T03:04:46.405Z,24.14
2017-05-20T03:07:15.350Z,25.02
2017-05-20T03:09:44.658Z,23.36
2017-05-20T03:12:13.649Z,22.98
2017-05-20T03:14:42.627Z,23.92
2017-05-20T03:17:11.614Z,26.80
2017-05-20T03:19:40.579Z,26.16
2017-05-20T03:22:09.567Z,23.56
2017-05-20T03:24:38.565Z,23.00
2017-05-20T03:27:07.550Z,25.66
2017-05-20T03:29:36.908Z,24.90
2017-05-20T03:32:05.868Z,24.16
2017-05-20T03:34:34.878Z,24.38
2017-05-20T03:37:03.883Z,26.58
2017-05-20T03:39:32.862Z,24.98
2017-05-20T03:42:02.268Z,25.38
2017-05-20T03:44:31.366Z,25.04
2017-05-20T03:47:00.353Z,25.16
2017-05-20T03:49:29.348Z,24.92
2017-05-20T03:51:58.312Z,23.30
2017-05-20T03:54:27.638Z,23.32
2017-05-20T03:56:56.589Z,24.16
2017-05-20T03:59:25.556Z,26.08
2017-05-20T04:01:54.533Z,25.60
2017-05-20T04:04:23.505Z,25.10
2017-05-20T04:06:52.815Z,25.78
2017-05-20T04:09:21.035Z,25.52
2017-05-20T04:11:50.002Z,28.36
2017-05-20T04:14:18.982Z,28.20
2017-05-20T04:16:47.962Z,29.36
2017-05-20T04:19:17.357Z,28.52
2017-05-20T04:21:46.309Z,30.34
2017-05-20T04:24:15.255Z,30.82
2017-05-20T04:26:44.225Z,29.14
2017-05-20T04:29:13.258Z,33.24
2017-05-20T04:31:42.593Z,31.88
2017-05-20T04:34:11.551Z,30.08
2017-05-20T04:36:40.518Z,30.48
2017-05-20T04:39:09.572Z,31.30
2017-05-20T04:41:38.636Z,32.42
2017-05-20T04:44:08.043Z,31.90
2017-05-20T04:46:37.037Z,30.56
2017-05-20T04:49:05.998Z,33.08
2017-05-20T04:51:34.974Z,30.22
2017-05-20T04:54:03.936Z,31.58
2017-05-20T04:56:33.261Z,33.30
2017-05-20T04:59:02.233Z,29.90
2017-05-20T05:01:31.205Z,32.50
2017-05-20T05:04:00.179Z,30.54
2017-05-20T05:06:29.191Z,33.22
2017-05-20T05:08:58.638Z,32.58
2017-05-20T05:11:27.616Z,32.68
2017-05-20T05:13:56.585Z,32.30
2017-05-20T05:16:25.573Z,33.10
2017-05-20T05:18:54.567Z,33.32
2017-05-20T05:21:23.899Z,33.28
2017-05-20T05:23:52.871Z,32.32
2017-05-20T05:26:21.074Z,32.20
2017-05-20T05:28:50.082Z,36.88
2017-05-20T05:31:19.068Z,34.10
2017-05-20T05:33:48.382Z,35.04
2017-05-20T05:36:17.365Z,35.86
2017-05-20T05:38:45.545Z,36.64
2017-05-20T05:41:14.533Z,37.18
2017-05-20T05:43:43.499Z,37.66
2017-05-20T05:46:13.015Z,38.22
2017-05-20T05:48:42.031Z,36.78
2017-05-20T05:51:11.046Z,38.40
2017-05-20T05:53:40.914Z,41.72
2017-05-20T05:56:09.893Z,38.08
2017-05-20T05:58:39.264Z,42.66
2017-05-20T06:01:08.231Z,43.80
2017-05-20T06:03:37.211Z,40.66
2017-05-20T06:06:06.204Z,38.68
2017-05-20T06:08:34.443Z,36.98
2017-05-20T06:11:03.862Z,36.80
2017-05-20T06:13:33.270Z,33.62
2017-05-20T06:16:02.241Z,35.78
2017-05-20T06:18:31.215Z,35.88
2017-05-20T06:21:00.170Z,35.68
2017-05-20T06:26:04.386Z,30.06
2017-05-20T06:28:33.849Z,32.48
2017-05-20T06:31:02.797Z,30.70
2017-05-20T06:33:32.469Z,29.52
2017-05-20T06:36:01.471Z,34.04
2017-05-20T06:38:30.422Z,33.00
2017-05-20T06:40:59.727Z,33.46
2017-05-20T06:43:28.693Z,28.94
2017-05-20T06:45:57.660Z,28.90
2017-05-20T06:48:26.638Z,30.30
2017-05-20T06:50:55.603Z,31.06
2017-05-20T06:53:24.204Z,31.64
2017-05-20T06:55:53.202Z,29.42
2017-05-20T06:58:22.191Z,32.66
2017-05-20T07:00:51.309Z,29.76
2017-05-20T07:03:20.292Z,30.76
2017-05-20T07:05:49.758Z,31.98
2017-05-20T07:08:18.016Z,26.54
2017-05-20T07:10:47.093Z,27.50
2017-05-20T07:13:16.116Z,27.72
2017-05-20T07:15:45.099Z,28.20
2017-05-20T07:18:14.511Z,27.60
2017-05-20T07:20:43.575Z,28.26
2017-05-20T07:23:12.559Z,28.06
2017-05-20T07:25:40.786Z,26.46
2017-05-20T07:28:09.795Z,24.28
2017-05-20T07:30:39.188Z,28.74
2017-05-20T07:33:08.164Z,27.60
2017-05-20T07:35:36.445Z,26.20
2017-05-20T07:38:05.445Z,25.04
2017-05-20T07:40:34.985Z,30.52
2017-05-20T07:43:04.333Z,28.24
2017-05-20T07:45:32.601Z,23.24
2017-05-20T07:48:01.650Z,28.72
2017-05-20T07:50:30.665Z,28.12
2017-05-20T07:52:59.681Z,24.62
2017-05-20T07:55:29.090Z,25.46
2017-05-20T07:57:58.090Z,25.02
2017-05-20T08:00:27.063Z,21.56
2017-05-20T08:02:56.087Z,24.74
2017-05-20T08:05:25.113Z,24.34
2017-05-20T08:07:54.564Z,24.56
2017-05-20T08:10:23.651Z,26.34
2017-05-20T08:12:52.621Z,23.72
2017-05-20T08:15:21.643Z,22.66
2017-05-20T08:17:50.632Z,23.14
2017-05-20T08:20:20.059Z,23.90
2017-05-20T08:22:49.066Z,23.76
2017-05-20T08:25:18.068Z,22.78
2017-05-20T08:27:47.097Z,20.66
2017-05-20T08:30:16.083Z,22.50
2017-05-20T08:32:44.684Z,20.80
2017-05-20T08:35:13.653Z,24.14
2017-05-20T08:37:42.638Z,23.36
2017-05-20T08:40:11.659Z,22.88
2017-05-20T08:42:39.860Z,22.06
2017-05-20T08:45:09.238Z,22.40
2017-05-20T08:47:38.277Z,21.44
2017-05-20T08:50:07.348Z,21.38
2017-05-20T08:52:36.352Z,19.74
2017-05-20T08:55:05.345Z,22.00
2017-05-20T08:57:35.963Z,22.56
2017-05-20T09:00:05.005Z,23.20
2017-05-20T09:02:33.993Z,23.48
2017-05-20T09:05:02.977Z,23.64
2017-05-20T09:07:32.085Z,22.30
2017-05-20T09:10:01.526Z,21.06
2017-05-20T09:12:30.524Z,16.48
2017-05-20T09:14:58.755Z,17.52
2017-05-20T09:17:27.782Z,17.42
2017-05-20T09:19:56.736Z,18.32
2017-05-20T09:22:25.704Z,17.68
2017-05-20T09:24:54.696Z,17.90
2017-05-20T09:27:23.833Z,16.32
2017-05-20T09:29:52.875Z,15.62
2017-05-20T09:32:21.863Z,16.28
2017-05-20T09:34:50.423Z,16.30
2017-05-20T09:37:19.382Z,15.62
2017-05-20T09:39:48.393Z,16.62
2017-05-20T09:42:17.399Z,16.50
2017-05-20T09:44:46.487Z,16.18
2017-05-20T09:47:15.829Z,16.06
2017-05-20T09:49:44.864Z,15.52
2017-05-20T09:52:13.846Z,14.52
2017-05-20T09:54:42.853Z,12.70
2017-05-20T09:57:11.864Z,12.72
2017-05-20T09:59:41.282Z,11.82
2017-05-20T10:02:10.229Z,11.98
2017-05-20T10:04:39.207Z,12.56
2017-05-20T10:07:08.242Z,12.94
2017-05-20T10:09:37.309Z,11.92
2017-05-20T10:12:06.724Z,12.70
2017-05-20T10:14:35.734Z,13.44
2017-05-20T10:17:04.732Z,13.80
2017-05-20T10:19:33.779Z,13.74
2017-05-20T10:22:02.790Z,14.78
2017-05-20T10:24:32.096Z,13.76
2017-05-20T10:27:01.057Z,15.04
2017-05-20T10:29:30.018Z,15.06
2017-05-20T10:31:59.035Z,15.28
2017-05-20T10:34:28.046Z,15.64
2017-05-20T10:36:56.742Z,14.36
2017-05-20T10:39:25.719Z,13.18
2017-05-20T10:41:54.804Z,11.66
2017-05-20T10:44:23.810Z,14.74
2017-05-20T10:46:52.806Z,14.70
2017-05-20T10:49:22.240Z,14.82
2017-05-20T10:51:51.282Z,14.58
2017-05-20T10:54:20.252Z,14.08
2017-05-20T10:56:49.283Z,13.50
2017-05-20T10:59:18.341Z,13.30
2017-05-20T11:01:47.722Z,13.42
2017-05-20T11:04:16.727Z,15.04
2017-05-20T11:06:45.723Z,15.00
2017-05-20T11:09:14.713Z,14.86
2017-05-20T11:11:43.707Z,13.78
2017-05-20T11:14:13.090Z,14.88
2017-05-20T11:16:42.078Z,15.12
2017-05-20T11:19:11.361Z,15.32
2017-05-20T11:21:40.374Z,12.34
2017-05-20T11:24:09.362Z,14.58
2017-05-20T11:26:38.690Z,13.92
2017-05-20T11:29:07.650Z,14.80
2017-05-20T11:31:35.882Z,13.00
2017-05-20T11:34:04.883Z,12.64
2017-05-20T11:36:33.886Z,13.42
2017-05-20T11:39:03.309Z,11.54
2017-05-20T11:41:32.276Z,10.48
2017-05-20T11:44:01.252Z,10.22
2017-05-20T11:46:30.252Z,10.26
2017-05-20T11:48:59.246Z,9.92
2017-05-20T11:51:28.559Z,10.12
2017-05-20T11:53:57.527Z,8.22
2017-05-20T11:56:26.497Z,8.34
2017-05-20T11:58:55.515Z,6.86
2017-05-20T12:01:24.486Z,8.38
2017-05-20T12:03:53.843Z,8.70
2017-05-20T12:06:22.804Z,8.18
2017-05-20T12:08:51.753Z,8.30
2017-05-20T12:11:20.727Z,7.58
2017-05-20T12:13:49.480Z,7.14
2017-05-20T12:16:18.880Z,8.38
2017-05-20T12:18:47.837Z,7.44
2017-05-20T12:21:16.833Z,8.04
2017-05-20T12:23:45.806Z,7.42
2017-05-20T12:26:14.794Z,7.16
2017-05-20T12:28:43.801Z,8.66
2017-05-20T12:31:12.811Z,8.28
2017-05-20T12:33:42.133Z,8.00
2017-05-20T12:36:11.178Z,7.04
2017-05-20T12:38:40.142Z,7.00
2017-05-20T12:41:09.171Z,6.18
2017-05-20T12:43:38.190Z,7.98
2017-05-20T12:46:07.702Z,6.36
2017-05-20T12:48:36.696Z,8.98
2017-05-20T12:51:05.672Z,8.28
2017-05-20T12:53:34.280Z,7.28
2017-05-20T12:56:03.287Z,6.66
2017-05-20T12:58:32.339Z,6.34
2017-05-20T13:01:01.325Z,7.28
2017-05-20T13:03:30.331Z,5.32
2017-05-20T13:05:59.654Z,5.86
2017-05-20T13:08:28.615Z,5.50
2017-05-20T13:10:57.659Z,7.96
2017-05-20T13:13:26.658Z,8.58
2017-05-20T13:15:55.644Z,8.28
2017-05-20T13:18:24.965Z,8.64
2017-05-20T13:20:53.979Z,7.52
2017-05-20T13:23:22.971Z,6.42
2017-05-20T13:25:51.959Z,7.34
2017-05-20T13:28:20.921Z,7.68
2017-05-20T13:30:50.302Z,7.88
2017-05-20T13:33:19.331Z,6.30
2017-05-20T13:35:48.373Z,6.70
2017-05-20T13:38:17.415Z,6.14
2017-05-20T13:40:46.471Z,5.94
2017-05-20T13:43:15.914Z,5.66
2017-05-20T13:45:44.876Z,5.02
2017-05-20T13:48:13.852Z,4.86
2017-05-20T13:50:42.834Z,5.24
2017-05-20T13:53:11.794Z,4.72
2017-05-20T13:55:42.019Z,4.46
2017-05-20T13:58:10.984Z,4.44
2017-05-20T14:00:39.963Z,4.40
2017-05-20T14:03:08.970Z,4.76
2017-05-20T14:05:37.958Z,4.36
2017-05-20T14:08:07.409Z,4.18
2017-05-20T14:10:36.354Z,3.82
2017-05-20T14:13:05.297Z,3.94
2017-05-20T14:15:34.279Z,3.20
2017-05-20T14:18:03.248Z,3.30
2017-05-20T14:20:32.580Z,2.84
2017-05-20T14:23:01.543Z,2.60
2017-05-20T14:25:30.512Z,3.08
2017-05-20T14:27:59.499Z,2.72
2017-05-20T14:30:28.500Z,2.70
2017-05-20T14:32:57.859Z,3.78
2017-05-20T14:35:26.070Z,3.42
2017-05-20T14:37:55.029Z,3.68
2017-05-20T14:40:24.134Z,3.50
2017-05-20T14:42:52.333Z,4.42
2017-05-20T14:45:21.091Z,3.88
2017-05-20T14:47:50.053Z,4.18
2017-05-20T14:50:19.003Z,4.40
2017-05-20T14:52:48.012Z,3.74
2017-05-20T14:55:17.002Z,3.70
2017-05-20T14:57:46.367Z,3.40
2017-05-20T15:00:15.348Z,3.90
2017-05-20T15:02:44.305Z,3.38
2017-05-20T15:05:13.412Z,3.20
2017-05-20T15:07:42.384Z,2.90
2017-05-20T15:10:11.814Z,3.26
2017-05-20T15:12:40.764Z,3.32
2017-05-20T15:15:09.746Z,3.06
2017-05-20T15:17:38.742Z,3.18
2017-05-20T15:20:07.731Z,3.08
2017-05-20T15:22:37.153Z,3.56
2017-05-20T15:25:06.112Z,3.62
2017-05-20T15:27:35.094Z,3.76
2017-05-20T15:30:04.060Z,3.58
2017-05-20T15:32:33.021Z,3.78
2017-05-20T15:35:02.338Z,3.70
2017-05-20T15:37:31.296Z,3.74
2017-05-20T15:40:00.249Z,3.66
2017-05-20T15:42:29.244Z,4.68
2017-05-20T15:44:58.202Z,3.80
2017-05-20T15:47:27.578Z,3.64
2017-05-20T15:49:56.539Z,3.88
2017-05-20T15:52:25.605Z,3.64
2017-05-20T15:54:54.599Z,4.10
2017-05-20T15:57:23.553Z,6.18
2017-05-20T15:59:52.882Z,5.28
2017-05-20T16:02:21.842Z,4.82
2017-05-20T16:04:50.781Z,5.50
2017-05-20T16:07:19.735Z,5.38
2017-05-20T16:09:48.729Z,5.30
2017-05-20T16:12:18.005Z,5.28
2017-05-20T16:14:46.972Z,4.14
2017-05-20T16:17:15.923Z,3.48
2017-05-20T16:19:44.893Z,3.90
2017-05-20T16:22:13.855Z,4.16
2017-05-20T16:24:43.223Z,5.36
2017-05-20T16:27:12.176Z,4.38
2017-05-20T16:29:41.135Z,4.72
2017-05-20T16:32:09.386Z,4.28
2017-05-20T16:34:38.358Z,3.90
2017-05-20T16:37:07.663Z,4.56
2017-05-20T16:39:36.638Z,4.88
2017-05-20T16:42:05.638Z,4.56
2017-05-20T16:44:34.683Z,4.98
2017-05-20T16:47:03.647Z,4.76
2017-05-20T16:49:33.066Z,4.92
2017-05-20T16:52:02.039Z,4.48
2017-05-20T16:54:31.028Z,4.40
2017-05-20T16:57:00.003Z,5.64
2017-05-20T16:59:29.134Z,5.72
2017-05-20T17:01:58.510Z,4.56
2017-05-20T17:04:27.535Z,4.52
2017-05-20T17:06:56.494Z,4.14
2017-05-20T17:09:25.518Z,5.72
2017-05-20T17:11:54.521Z,4.44
2017-05-20T17:14:23.910Z,4.64
2017-05-20T17:16:53.858Z,4.76
2017-05-20T17:19:23.633Z,3.78
2017-05-20T17:21:52.599Z,4.32
2017-05-20T17:24:21.558Z,4.40
2017-05-20T17:26:50.511Z,4.68
2017-05-20T17:29:19.482Z,4.76
2017-05-20T17:31:48.897Z,4.04
2017-05-20T17:34:17.873Z,3.96
2017-05-20T17:36:46.921Z,4.78
2017-05-20T17:39:15.871Z,4.56
2017-05-20T17:41:44.877Z,3.94
2017-05-20T17:44:14.261Z,4.90
2017-05-20T17:46:43.221Z,5.02
2017-05-20T17:49:12.192Z,4.78
2017-05-20T17:51:41.289Z,4.48
2017-05-20T17:54:10.279Z,5.16
2017-05-20T17:56:39.617Z,5.04
2017-05-20T17:59:08.654Z,5.88
2017-05-20T18:01:37.639Z,5.80
2017-05-20T18:04:06.627Z,6.32
2017-05-20T18:06:35.674Z,6.32
2017-05-20T18:09:04.986Z,6.32
2017-05-20T18:11:33.923Z,5.44
2017-05-20T18:14:02.906Z,4.54
2017-05-20T18:16:31.895Z,5.36
2017-05-20T18:19:00.872Z,5.74
2017-05-20T18:21:30.175Z,5.52
2017-05-20T18:23:59.151Z,6.12
2017-05-20T18:26:28.151Z,6.96
2017-05-20T18:28:57.170Z,6.34
2017-05-20T18:31:26.142Z,7.20
2017-05-20T18:33:55.445Z,7.24
2017-05-20T18:36:24.410Z,6.74
2017-05-20T18:38:53.352Z,6.30
2017-05-20T18:41:22.327Z,6.00
2017-05-20T18:43:51.354Z,7.06
2017-05-20T18:46:20.673Z,6.48
2017-05-20T18:48:49.635Z,7.30
2017-05-20T18:51:18.629Z,7.12
2017-05-20T18:53:47.640Z,6.50
2017-05-20T18:56:16.587Z,6.24
2017-05-20T18:58:45.853Z,6.72
2017-05-20T19:01:14.899Z,7.20
2017-05-20T19:03:43.923Z,6.90
2017-05-20T19:06:12.922Z,6.06
2017-05-20T19:08:41.884Z,8.06
2017-05-20T19:11:11.191Z,6.74
2017-05-20T19:13:40.177Z,7.72
2017-05-20T19:16:09.170Z,8.40
2017-05-20T19:18:38.186Z,10.16
2017-05-20T19:21:07.233Z,7.90
2017-05-20T19:23:36.605Z,9.80
2017-05-20T19:26:05.602Z,9.08
2017-05-20T19:28:34.614Z,8.56
2017-05-20T19:31:03.565Z,9.08
2017-05-20T19:33:32.583Z,9.12
2017-05-20T19:36:01.959Z,9.64
2017-05-20T19:38:30.948Z,8.22
2017-05-20T19:40:59.916Z,8.72
2017-05-20T19:43:28.964Z,9.26
2017-05-20T19:45:57.917Z,8.68
2017-05-20T19:48:27.350Z,8.54
2017-05-20T19:50:56.490Z,10.32
2017-05-20T19:53:25.465Z,10.06
2017-05-20T19:55:54.530Z,8.94
2017-05-20T19:58:23.529Z,9.60
2017-05-20T20:00:52.907Z,9.18
2017-05-20T20:03:21.871Z,9.82
2017-05-20T20:05:50.828Z,11.08
2017-05-20T20:08:19.845Z,10.50
2017-05-20T20:10:48.833Z,10.82
2017-05-20T20:13:18.239Z,12.12
2017-05-20T20:15:47.223Z,10.88
2017-05-20T20:18:16.212Z,10.72
2017-05-20T20:20:45.198Z,11.36
2017-05-20T20:23:14.264Z,11.20
2017-05-20T20:25:43.729Z,9.96
2017-05-20T20:28:12.741Z,10.90
2017-05-20T20:30:41.798Z,9.86
2017-05-20T20:33:10.791Z,9.62
2017-05-20T20:35:39.792Z,9.62
2017-05-20T20:38:09.226Z,9.94
2017-05-20T20:40:38.178Z,9.38
2017-05-20T20:43:07.148Z,10.32
2017-05-20T20:45:36.109Z,9.60
2017-05-20T20:48:05.055Z,9.84
2017-05-20T20:50:34.409Z,9.02
2017-05-20T20:53:03.353Z,9.98
2017-05-20T20:55:32.328Z,10.32
2017-05-20T20:58:01.312Z,10.24
2017-05-20T21:00:30.285Z,9.84
2017-05-20T21:02:59.638Z,9.98
2017-05-20T21:05:28.669Z,9.66
2017-05-20T21:07:57.669Z,10.30
2017-05-20T21:10:26.939Z,9.62
2017-05-20T21:12:55.923Z,9.70
2017-05-20T21:15:25.409Z,10.54
2017-05-20T21:17:54.415Z,9.48
2017-05-20T21:20:23.391Z,9.96
2017-05-20T21:22:52.387Z,11.74
2017-05-20T21:25:21.408Z,10.44
2017-05-20T21:27:50.796Z,11.14
2017-05-20T21:30:19.854Z,10.44
2017-05-20T21:32:49.674Z,10.04
2017-05-20T21:35:18.656Z,10.98
2017-05-20T21:37:47.657Z,11.50
2017-05-20T21:40:17.015Z,10.84
2017-05-20T21:42:45.990Z,11.06
2017-05-20T21:45:14.953Z,11.80
2017-05-20T21:47:43.188Z,12.04
2017-05-20T21:50:13.215Z,11.80
2017-05-20T21:52:42.571Z,12.06
2017-05-20T21:55:11.529Z,11.40
2017-05-20T21:57:40.478Z,11.16
2017-05-20T22:00:09.594Z,10.62
2017-05-20T22:02:38.567Z,11.72
2017-05-20T22:05:07.895Z,11.98
2017-05-20T22:07:36.847Z,13.50
2017-05-20T22:10:05.834Z,12.18
2017-05-20T22:12:34.817Z,12.80
2017-05-20T22:15:03.822Z,12.64
2017-05-20T22:17:33.172Z,13.36
2017-05-20T22:20:02.129Z,12.70
2017-05-20T22:22:31.091Z,11.94
2017-05-20T22:24:59.328Z,14.76
2017-05-20T22:27:28.334Z,12.86
2017-05-20T22:29:57.679Z,13.62
2017-05-20T22:32:26.674Z,13.80
2017-05-20T22:34:55.648Z,14.16
2017-05-20T22:37:24.636Z,13.92
2017-05-20T22:39:53.579Z,14.50
2017-05-20T22:42:22.902Z,13.90
2017-05-20T22:44:51.891Z,14.84
2017-05-20T22:47:20.881Z,15.44
2017-05-20T22:49:49.877Z,15.02
2017-05-20T22:52:18.844Z,15.32
2017-05-20T22:54:48.234Z,14.50
2017-05-20T22:57:17.299Z,16.12
2017-05-20T22:59:46.279Z,15.36
2017-05-20T23:02:15.316Z,14.64
2017-05-20T23:04:44.299Z,15.00
2017-05-20T23:07:13.048Z,14.80
2017-05-20T23:09:42.020Z,14.78
2017-05-20T23:12:10.962Z,16.08
2017-05-20T23:14:39.983Z,16.62
2017-05-20T23:17:08.959Z,15.54
2017-05-20T23:19:38.293Z,15.60
2017-05-20T23:22:06.791Z,15.02
2017-05-20T23:24:35.881Z,15.08
2017-05-20T23:27:04.869Z,16.46
2017-05-20T23:29:34.022Z,15.58
2017-05-20T23:32:03.434Z,16.42
2017-05-20T23:34:32.406Z,17.86
2017-05-20T23:37:01.435Z,16.16
2017-05-20T23:39:30.449Z,15.80
2017-05-20T23:41:59.417Z,16.26
2017-05-20T23:44:28.752Z,16.40
2017-05-20T23:46:57.720Z,16.06
2017-05-20T23:49:26.720Z,16.50
2017-05-20T23:51:55.729Z,16.50
2017-05-20T23:54:24.694Z,15.96
2017-05-20T23:56:53.993Z,17.38
2017-05-20T23:59:23.363Z,17.84
